Time;durP1;ratioP1;P1;durP2;ratioP2;P2;SDS_P1;SDS_P2;PMS_P1;PMS_P2;Temp;Humidity;BMP_temperature;BMP_pressure;BME280_temperature;BME280_humidity;BME280_pressure;Samples;Min_cycle;Max_cycle;Signal;HPM_P1;HPM_P2
2023/03/03 00:01:37;;;;;;;49.58;24.35;;;;;;;5.04;61.33;100625.47;5011838;28;20049;-78
2023/03/03 00:04:03;;;;;;;52.75;24.23;;;;;;;5.06;61.37;100626.31;5013168;28;20054;-78
2023/03/03 00:06:30;;;;;;;46.40;22.55;;;;;;;5.07;61.42;100625.41;5010908;28;20490;-78
2023/03/03 00:08:56;;;;;;;48.22;22.85;;;;;;;5.08;61.30;100628.00;5012348;28;20042;-78
2023/03/03 00:11:23;;;;;;;46.13;22.92;;;;;;;5.11;61.26;100620.97;5015243;28;20697;-78
2023/03/03 00:13:52;;;;;;;43.97;23.77;;;;;;;5.11;61.34;100626.19;5013162;28;20653;-78
2023/03/03 00:16:31;;;;;;;40.92;22.38;;;;;;;5.09;61.63;100634.09;5011477;28;20410;-78
2023/03/03 00:18:58;;;;;;;44.13;22.63;;;;;;;5.13;61.14;100635.75;5004150;28;20054;-78
2023/03/03 00:21:31;;;;;;;39.15;20.02;;;;;;;5.11;61.14;100640.13;5012957;28;20049;-78
2023/03/03 00:24:04;;;;;;;41.22;21.00;;;;;;;5.11;61.18;100636.66;5011785;28;20132;-78
2023/03/03 00:26:36;;;;;;;36.65;20.00;;;;;;;5.08;61.12;100633.22;5012685;28;20054;-78
2023/03/03 00:29:45;;;;;;;42.13;20.27;;;;;;;5.04;61.19;100628.94;5013032;28;20061;-78
2023/03/03 00:32:14;;;;;;;40.58;19.77;;;;;;;5.05;61.22;100624.59;5012616;28;20479;-78
2023/03/03 00:34:42;;;;;;;37.45;19.13;;;;;;;5.03;61.26;100623.75;5012699;28;20054;-78
2023/03/03 00:37:24;;;;;;;43.05;20.73;;;;;;;4.98;61.69;100618.66;5011845;28;20080;-78
2023/03/03 00:39:51;;;;;;;35.38;18.45;;;;;;;5.01;60.82;100615.13;5012816;28;20104;-78
2023/03/03 00:42:18;;;;;;;35.95;17.00;;;;;;;4.99;61.26;100630.81;5012741;28;20085;-78
2023/03/03 00:44:45;;;;;;;31.95;17.23;;;;;;;5.00;61.46;100624.69;5012366;28;20089;-78
2023/03/03 00:47:51;;;;;;;34.40;17.95;;;;;;;4.97;61.42;100624.72;5012349;28;20384;-78
2023/03/03 00:50:32;;;;;;;34.28;17.17;;;;;;;4.98;61.40;100636.91;4971057;28;20268;-78
2023/03/03 00:53:04;;;;;;;40.22;18.00;;;;;;;4.99;61.37;100622.97;4970671;28;20051;-78
2023/03/03 00:55:32;;;;;;;34.38;17.40;;;;;;;5.00;61.02;100637.72;4988160;28;20081;-78
2023/03/03 00:57:59;;;;;;;37.80;17.98;;;;;;;5.00;60.74;100629.03;5012152;28;20054;-78
2023/03/03 01:00:25;;;;;;;36.47;18.42;;;;;;;4.99;61.18;100630.81;5012681;28;20067;-78
2023/03/03 01:02:52;;;;;;;40.05;18.83;;;;;;;4.98;61.22;100623.88;5012137;28;20046;-78
2023/03/03 01:05:19;;;;;;;40.28;19.40;;;;;;;4.99;61.34;100637.75;5010644;28;20053;-78
2023/03/03 01:07:46;;;;;;;43.45;19.83;;;;;;;4.99;61.50;100633.41;5011684;28;20061;-78
2023/03/03 01:10:13;;;;;;;41.53;20.83;;;;;;;5.01;61.32;100629.00;5012427;28;20054;-78
2023/03/03 01:12:39;;;;;;;42.65;19.98;;;;;;;5.02;61.56;100629.88;5012243;28;20049;-78
2023/03/03 01:15:08;;;;;;;40.70;19.50;;;;;;;5.03;61.36;100631.59;5011845;28;20440;-78
2023/03/03 01:17:35;;;;;;;41.72;19.13;;;;;;;5.05;61.36;100622.00;5011571;28;20058;-78
2023/03/03 01:20:03;;;;;;;36.45;19.25;;;;;;;5.05;61.48;100616.78;5011745;28;20060;-78
2023/03/03 01:22:29;;;;;;;36.00;19.70;;;;;;;5.05;61.51;100622.84;5010729;28;20068;-78
2023/03/03 01:24:56;;;;;;;36.72;19.35;;;;;;;5.07;61.49;100625.41;5011575;28;20056;-78
2023/03/03 01:27:27;;;;;;;35.78;19.50;;;;;;;5.07;61.37;100623.69;5010328;28;20141;-78
2023/03/03 01:29:55;;;;;;;41.15;19.42;;;;;;;5.07;61.28;100615.84;5011568;28;20422;-78
2023/03/03 01:32:23;;;;;;;35.97;18.95;;;;;;;5.06;61.31;100623.72;5010605;28;20062;-78
2023/03/03 01:34:50;;;;;;;34.67;18.95;;;;;;;5.05;61.57;100619.38;5009845;28;20131;-78
2023/03/03 01:37:16;;;;;;;41.45;19.50;;;;;;;5.03;61.36;100613.31;5011377;28;20050;-78
2023/03/03 01:39:47;;;;;;;41.85;20.90;;;;;;;5.00;61.40;100618.59;5011491;28;20545;-78
2023/03/03 01:42:14;;;;;;;39.55;19.65;;;;;;;4.99;61.16;100622.09;5010427;28;20770;-78
2023/03/03 01:44:41;;;;;;;45.17;20.42;;;;;;;4.95;61.36;100616.09;5011324;28;20057;-78
2023/03/03 01:47:21;;;;;;;46.13;20.60;;;;;;;4.89;62.03;100631.84;5010072;28;20071;-79
2023/03/03 01:49:58;;;;;;;46.90;21.13;;;;;;;4.85;61.67;100630.22;5010355;28;20064;-78
2023/03/03 01:52:38;;;;;;;49.60;19.95;;;;;;;4.81;61.83;100622.44;5011700;28;20136;-78
2023/03/03 01:55:14;;;;;;;46.88;20.15;;;;;;;4.77;61.97;100620.78;5010808;28;20082;-78
2023/03/03 01:57:46;;;;;;;39.50;19.25;;;;;;;4.74;61.79;100623.44;5010976;28;20046;-78
2023/03/03 02:00:13;;;;;;;49.30;20.92;;;;;;;4.73;61.87;100623.47;5012267;28;20137;-78
2023/03/03 02:02:41;;;;;;;48.70;21.55;;;;;;;4.71;61.85;100620.88;5012000;28;20065;-78
2023/03/03 02:05:09;;;;;;;42.55;20.35;;;;;;;4.69;61.55;100618.31;5010525;28;20045;-78
2023/03/03 02:07:36;;;;;;;50.95;21.52;;;;;;;4.67;61.70;100622.69;5010958;28;20054;-78
2023/03/03 02:10:05;;;;;;;44.58;20.25;;;;;;;4.64;62.10;100617.53;5011050;28;20060;-78
2023/03/03 02:12:47;;;;;;;45.67;20.98;;;;;;;4.62;62.21;100618.44;5011169;28;20129;-78
2023/03/03 02:15:26;;;;;;;44.45;20.90;;;;;;;4.58;62.52;100620.25;5010884;28;20045;-78
2023/03/03 02:17:55;;;;;;;48.38;20.02;;;;;;;4.59;61.76;100613.31;5009554;28;20562;-78
2023/03/03 02:20:32;;;;;;;48.47;20.27;;;;;;;4.55;62.53;100618.56;5009567;28;20054;-78
2023/03/03 02:23:16;;;;;;;49.15;21.27;;;;;;;4.53;62.43;100624.69;5011141;28;20054;-78
2023/03/03 02:25:55;;;;;;;43.38;19.50;;;;;;;4.54;62.15;100629.00;5010425;28;20045;-78
2023/03/03 02:28:31;;;;;;;51.47;20.38;;;;;;;4.51;62.07;100629.94;5009458;28;20061;-78
2023/03/03 02:30:58;;;;;;;49.50;21.17;;;;;;;4.52;61.96;100628.19;5010937;28;20053;-78
2023/03/03 02:33:25;;;;;;;47.28;20.45;;;;;;;4.50;61.78;100620.41;5009472;28;20565;-78
2023/03/03 02:35:52;;;;;;;48.47;20.55;;;;;;;4.49;61.79;100621.25;5010398;28;20046;-78
2023/03/03 02:38:30;;;;;;;49.05;21.02;;;;;;;4.44;62.75;100623.09;5009362;28;20100;-78
2023/03/03 02:41:32;;;;;;;46.70;19.70;;;;;;;4.46;62.28;100616.13;5010782;28;20121;-78
2023/03/03 02:44:06;;;;;;;47.22;18.92;;;;;;;4.46;61.99;100621.34;4986481;28;20522;-78
2023/03/03 02:46:36;;;;;;;52.42;18.67;;;;;;;4.44;62.25;100620.50;5008761;28;20141;-78
2023/03/03 02:49:04;;;;;;;43.78;19.08;;;;;;;4.41;62.13;100625.78;5010646;28;20541;-78
2023/03/03 02:51:31;;;;;;;48.78;20.13;;;;;;;4.39;62.05;100623.19;5010562;28;20081;-78
2023/03/03 02:53:58;;;;;;;55.92;20.20;;;;;;;4.36;62.42;100619.75;5081657;22;20350;-81
2023/03/03 02:56:24;;;;;;;47.38;19.50;;;;;;;4.35;62.33;100621.53;5008692;28;20467;-81
2023/03/03 02:58:51;;;;;;;49.90;21.45;;;;;;;4.35;62.64;100618.03;5008239;28;20058;-81
2023/03/03 03:01:17;;;;;;;45.85;18.85;;;;;;;4.34;62.31;100619.78;5012580;28;20097;-80
2023/03/03 03:03:44;;;;;;;42.85;18.73;;;;;;;4.34;62.51;100617.19;5013933;28;20041;-80
2023/03/03 03:06:11;;;;;;;39.67;18.63;;;;;;;4.34;62.43;100613.72;5013793;28;20060;-80
2023/03/03 03:08:37;;;;;;;49.38;18.75;;;;;;;4.33;62.50;100612.84;5013658;28;20061;-81
2023/03/03 03:11:07;;;;;;;41.22;16.83;;;;;;;4.33;62.16;100617.22;5013915;28;20057;-81
2023/03/03 03:13:34;;;;;;;46.53;19.42;;;;;;;4.31;62.23;100614.66;5013497;28;20578;-81
2023/03/03 03:16:00;;;;;;;43.75;19.08;;;;;;;4.30;62.71;100612.94;5013904;28;20104;-80
2023/03/03 03:18:27;;;;;;;46.20;18.35;;;;;;;4.30;62.97;100618.16;5013488;28;20519;-80
2023/03/03 03:20:53;;;;;;;43.67;18.40;;;;;;;4.31;62.71;100612.03;5012692;28;20053;-80
2023/03/03 03:23:23;;;;;;;41.35;18.33;;;;;;;4.34;62.79;100618.94;5013769;28;20046;-80
2023/03/03 03:25:49;;;;;;;44.65;17.42;;;;;;;4.35;62.67;100615.44;5012251;28;20104;-80
2023/03/03 03:28:17;;;;;;;39.38;16.88;;;;;;;4.37;62.97;100621.50;5013541;28;20111;-80
2023/03/03 03:30:44;;;;;;;38.42;17.00;;;;;;;4.37;62.87;100621.50;5013717;28;20514;-80
2023/03/03 03:33:11;;;;;;;38.35;15.15;;;;;;;4.39;62.82;100619.72;5012280;28;20053;-80
2023/03/03 03:35:39;;;;;;;38.83;16.80;;;;;;;4.38;63.00;100631.88;5013251;28;20594;-80
2023/03/03 03:38:05;;;;;;;32.72;15.65;;;;;;;4.37;62.68;100632.78;5013582;28;20054;-81
2023/03/03 03:40:32;;;;;;;32.08;15.95;;;;;;;4.37;62.97;100626.72;5012524;28;20062;-80
2023/03/03 03:42:58;;;;;;;37.60;16.48;;;;;;;4.37;62.75;100626.72;5013616;28;20104;-81
2023/03/03 03:45:24;;;;;;;31.15;14.88;;;;;;;4.38;62.67;100623.22;5013369;28;20061;-81
2023/03/03 03:47:51;;;;;;;33.72;15.45;;;;;;;4.37;62.47;100629.31;5013322;28;20049;-80
2023/03/03 03:50:17;;;;;;;35.20;16.35;;;;;;;4.37;62.67;100640.59;5012100;28;20057;-80
2023/03/03 03:52:44;;;;;;;31.98;15.68;;;;;;;4.35;62.58;100631.09;5017899;28;20057;-81
2023/03/03 03:55:10;;;;;;;32.95;15.73;;;;;;;4.33;62.35;100632.88;5012410;28;20431;-81
2023/03/03 03:57:37;;;;;;;30.52;15.25;;;;;;;4.30;62.80;100628.56;5012861;28;20057;-80
2023/03/03 04:00:04;;;;;;;30.08;14.90;;;;;;;4.29;62.61;100627.69;5013311;28;20046;-80
2023/03/03 04:02:31;;;;;;;30.48;14.43;;;;;;;4.28;62.68;100628.59;5012995;28;20073;-80
2023/03/03 04:04:57;;;;;;;29.52;14.05;;;;;;;4.29;63.07;100638.13;5012771;28;20050;-80
2023/03/03 04:07:24;;;;;;;34.28;14.55;;;;;;;4.30;62.47;100639.00;5012759;28;20057;-80
2023/03/03 04:09:50;;;;;;;36.42;14.60;;;;;;;4.29;62.83;100639.84;5012243;28;20050;-81
2023/03/03 04:12:17;;;;;;;28.73;14.10;;;;;;;4.30;62.96;100624.19;5011706;28;20049;-80
2023/03/03 04:14:43;;;;;;;28.23;13.88;;;;;;;4.29;62.77;100622.47;5012776;28;20046;-80
2023/03/03 04:17:17;;;;;;;29.33;14.57;;;;;;;4.28;63.27;100614.69;5012583;28;20058;-80
2023/03/03 04:19:44;;;;;;;29.02;13.80;;;;;;;4.30;62.82;100624.19;5012721;28;20054;-80
2023/03/03 04:22:12;;;;;;;30.88;14.25;;;;;;;4.31;62.73;100625.06;5012826;28;20107;-80
2023/03/03 04:24:41;;;;;;;28.40;14.40;;;;;;;4.32;63.28;100623.31;5012849;28;20100;-80
2023/03/03 04:27:08;;;;;;;28.63;13.90;;;;;;;4.33;63.02;100622.44;5012192;28;20092;-80
2023/03/03 04:29:35;;;;;;;32.22;14.15;;;;;;;4.34;63.04;100622.38;5012786;28;20128;-80
2023/03/03 04:32:01;;;;;;;26.00;13.60;;;;;;;4.36;62.94;100627.59;5012936;28;20471;-80
2023/03/03 04:34:28;;;;;;;27.45;13.73;;;;;;;4.36;62.83;100619.75;5012392;28;20054;-80
2023/03/03 04:36:54;;;;;;;27.95;13.88;;;;;;;4.36;62.86;100627.59;5011981;28;20050;-80
2023/03/03 04:39:20;;;;;;;31.63;14.73;;;;;;;4.36;62.82;100638.00;5011391;28;20054;-80
2023/03/03 04:41:47;;;;;;;29.42;13.68;;;;;;;4.34;62.67;100627.59;5012377;28;20049;-80
2023/03/03 04:44:13;;;;;;;36.25;16.15;;;;;;;4.34;62.58;100629.38;5012601;28;20061;-80
2023/03/03 04:46:39;;;;;;;29.75;14.98;;;;;;;4.34;62.89;100637.19;5012247;28;20050;-80
2023/03/03 04:49:07;;;;;;;33.00;16.38;;;;;;;4.34;62.74;100634.59;5012370;28;20050;-80
2023/03/03 04:51:36;;;;;;;30.73;15.13;;;;;;;4.33;62.96;100633.72;5011032;28;20493;-81
2023/03/03 04:54:03;;;;;;;30.58;15.30;;;;;;;4.33;62.83;100638.91;5011774;28;20571;-80
2023/03/03 04:56:30;;;;;;;34.92;16.65;;;;;;;4.34;62.94;100640.63;5011634;28;20436;-80
2023/03/03 04:58:57;;;;;;;32.60;15.90;;;;;;;4.35;62.74;100638.91;5010275;28;20398;-80
2023/03/03 05:01:23;;;;;;;32.05;14.30;;;;;;;4.35;63.12;100641.50;5011743;28;20069;-80
2023/03/03 05:03:50;;;;;;;30.92;15.15;;;;;;;4.36;62.90;100646.69;5010481;28;20054;-81
2023/03/03 05:06:17;;;;;;;33.30;15.63;;;;;;;4.36;62.94;100640.63;5010028;28;20057;-80
2023/03/03 05:08:44;;;;;;;32.13;15.80;;;;;;;4.36;63.00;100635.41;5010208;28;20062;-80
2023/03/03 05:11:12;;;;;;;29.40;14.13;;;;;;;4.37;62.88;100644.97;5011890;28;20097;-80
2023/03/03 05:13:39;;;;;;;30.95;14.98;;;;;;;4.36;62.81;100646.69;5011624;28;20046;-80
2023/03/03 05:16:06;;;;;;;30.73;14.45;;;;;;;4.37;62.87;100653.63;5011226;28;20077;-80
2023/03/03 05:18:33;;;;;;;30.60;14.73;;;;;;;4.37;62.95;100652.78;5011189;28;20072;-81
2023/03/03 05:21:00;;;;;;;31.60;14.18;;;;;;;4.38;63.01;100654.50;5010128;28;20104;-80
2023/03/03 05:23:26;;;;;;;31.23;14.90;;;;;;;4.38;62.98;100649.28;5011603;28;20415;-80
2023/03/03 05:25:53;;;;;;;32.35;16.23;;;;;;;4.39;62.99;100648.38;5011684;28;20479;-80
2023/03/03 05:28:19;;;;;;;32.08;16.05;;;;;;;4.40;63.08;100660.53;5011046;28;20471;-81
2023/03/03 05:30:46;;;;;;;40.33;15.45;;;;;;;4.40;62.98;100663.13;5011182;28;20465;-80
2023/03/03 05:33:15;;;;;;;38.72;17.35;;;;;;;4.40;63.05;100652.72;5010073;28;20061;-80
2023/03/03 05:35:42;;;;;;;34.50;16.42;;;;;;;4.40;62.54;100656.19;5009843;28;20054;-80
2023/03/03 05:38:09;;;;;;;38.45;17.55;;;;;;;4.39;62.56;100664.03;5011096;28;20057;-80
2023/03/03 05:40:36;;;;;;;37.40;16.67;;;;;;;4.34;62.50;100661.50;5011417;28;20053;-80
2023/03/03 05:43:03;;;;;;;33.95;15.55;;;;;;;4.33;62.64;100658.94;5011205;28;20053;-80
2023/03/03 05:45:29;;;;;;;37.80;17.10;;;;;;;4.28;62.30;100652.06;5010754;28;20049;-80
2023/03/03 05:47:55;;;;;;;38.08;15.95;;;;;;;4.26;62.42;100653.81;5009599;28;20155;-80
2023/03/03 05:50:22;;;;;;;38.10;16.85;;;;;;;4.25;62.62;100662.50;5011179;28;20123;-81
2023/03/03 05:52:51;;;;;;;39.08;18.13;;;;;;;4.24;62.90;100659.94;5010950;28;20053;-80
2023/03/03 05:55:18;;;;;;;39.75;17.15;;;;;;;4.21;62.71;100662.56;5009226;28;20500;-80
2023/03/03 05:57:44;;;;;;;35.53;16.08;;;;;;;4.20;62.80;100650.44;5010537;28;20455;-81
2023/03/03 06:00:12;;;;;;;39.13;17.70;;;;;;;4.20;62.76;100655.66;5010706;28;20519;-80
2023/03/03 06:02:39;;;;;;;37.63;16.38;;;;;;;4.19;62.97;100652.19;5011143;28;20061;-80
2023/03/03 06:05:06;;;;;;;36.90;16.65;;;;;;;4.19;62.84;100654.81;5010658;28;20092;-80
2023/03/03 06:07:33;;;;;;;34.15;16.02;;;;;;;4.20;62.95;100660.88;5010462;28;20062;-80
2023/03/03 06:10:00;;;;;;;36.47;16.38;;;;;;;4.19;62.93;100662.63;5010877;28;20077;-80
2023/03/03 06:12:26;;;;;;;34.95;16.25;;;;;;;4.19;62.70;100665.22;5009443;28;20057;-80
2023/03/03 06:14:52;;;;;;;34.95;17.17;;;;;;;4.20;62.86;100663.47;5010481;28;20132;-80
2023/03/03 06:17:19;;;;;;;36.13;16.40;;;;;;;4.21;63.12;100662.56;5010024;28;20467;-80
2023/03/03 06:19:46;;;;;;;42.20;17.00;;;;;;;4.20;63.01;100666.94;5010705;28;20096;-81
2023/03/03 06:22:13;;;;;;;35.47;16.63;;;;;;;4.21;62.71;100665.19;5010553;28;20062;-80
2023/03/03 06:24:39;;;;;;;38.38;17.42;;;;;;;4.21;62.60;100665.19;5010823;28;20490;-81
2023/03/03 06:27:06;;;;;;;38.45;17.30;;;;;;;4.19;62.61;100673.06;5009908;28;20046;-80
2023/03/03 06:29:32;;;;;;;36.97;17.02;;;;;;;4.18;63.02;100673.91;5010302;28;20057;-80
2023/03/03 06:31:59;;;;;;;35.60;15.93;;;;;;;4.18;62.86;100676.50;5010603;28;20104;-80
2023/03/03 06:34:26;;;;;;;34.20;16.88;;;;;;;4.19;63.06;100678.25;5008815;28;20080;-82
2023/03/03 06:36:52;;;;;;;39.05;16.88;;;;;;;4.18;63.28;100676.50;5008866;28;20088;-80
2023/03/03 06:39:18;;;;;;;38.33;17.38;;;;;;;4.21;63.21;100688.63;5010474;28;20046;-80
2023/03/03 06:41:45;;;;;;;36.97;16.45;;;;;;;4.22;62.92;100680.78;5009189;28;20064;-80
2023/03/03 06:44:12;;;;;;;38.45;16.90;;;;;;;4.23;63.07;100682.50;5010442;28;20050;-80
2023/03/03 06:46:38;;;;;;;43.85;18.65;;;;;;;4.25;63.27;100683.38;5009601;28;20480;-81
2023/03/03 06:49:04;;;;;;;44.92;18.17;;;;;;;4.28;63.34;100690.28;5009233;28;20061;-80
2023/03/03 06:51:38;;;;;;;41.60;17.73;;;;;;;4.28;63.19;100685.94;5010489;28;20061;-80
2023/03/03 06:54:28;;;;;;;43.40;18.08;;;;;;;4.29;63.72;100691.97;5010222;28;20054;-80
2023/03/03 06:56:59;;;;;;;41.85;18.00;;;;;;;4.35;62.97;100691.91;5009738;28;20057;-80
2023/03/03 06:59:26;;;;;;;48.47;20.02;;;;;;;4.36;63.31;100698.84;5010395;28;20050;-80
2023/03/03 07:01:53;;;;;;;46.67;19.42;;;;;;;4.37;62.98;100689.28;5010081;28;20061;-80
2023/03/03 07:04:30;;;;;;;46.97;20.00;;;;;;;4.38;63.37;100699.66;5010104;28;20053;-80
2023/03/03 07:06:59;;;;;;;44.10;19.02;;;;;;;4.42;63.12;100708.31;5009479;28;20056;-80
2023/03/03 07:09:27;;;;;;;45.17;20.58;;;;;;;4.43;63.09;100702.19;5010402;28;20108;-80
2023/03/03 07:12:05;;;;;;;47.97;19.45;;;;;;;4.42;63.32;100710.91;5010372;28;20058;-80
2023/03/03 07:14:33;;;;;;;46.58;19.85;;;;;;;4.48;63.42;100715.19;5010012;28;20096;-80
2023/03/03 07:17:03;;;;;;;50.95;20.70;;;;;;;4.51;63.42;100720.31;5009550;28;20053;-80
2023/03/03 07:19:33;;;;;;;50.40;19.58;;;;;;;4.52;63.20;100729.88;5010018;28;20054;-81
2023/03/03 07:22:14;;;;;;;47.38;20.35;;;;;;;4.52;63.48;100735.09;5010422;28;20085;-80
2023/03/03 07:24:43;;;;;;;46.13;19.30;;;;;;;4.55;63.21;100729.81;5009863;28;20058;-80
2023/03/03 07:27:24;;;;;;;47.97;20.95;;;;;;;4.54;63.33;100741.13;5009498;28;20057;-81
2023/03/03 07:29:53;;;;;;;49.35;21.20;;;;;;;4.59;63.18;100735.88;5009910;28;20053;-81
2023/03/03 07:32:49;;;;;;;48.90;20.83;;;;;;;4.56;63.17;100735.00;5008637;28;20451;-80
2023/03/03 07:35:39;;;;;;;53.30;20.42;;;;;;;4.55;63.33;100743.72;5009347;28;20050;-81
2023/03/03 07:38:37;;;;;;;51.85;22.45;;;;;;;4.55;63.11;100741.13;5009410;28;20057;-81
2023/03/03 07:41:16;;;;;;;46.17;19.20;;;;;;;4.57;63.51;100744.53;5009945;28;20077;-80
2023/03/03 07:43:53;;;;;;;45.80;19.23;;;;;;;4.58;63.42;100740.22;5009869;28;20096;-80
2023/03/03 07:46:34;;;;;;;52.00;20.30;;;;;;;4.57;63.63;100747.16;5011507;28;20417;-80
2023/03/03 07:49:04;;;;;;;46.72;18.08;;;;;;;4.61;63.25;100748.00;5013390;28;20046;-81
2023/03/03 07:51:40;;;;;;;47.65;19.83;;;;;;;4.61;63.67;100753.19;5013395;28;20100;-81
2023/03/03 07:54:13;;;;;;;51.83;20.25;;;;;;;4.64;63.70;100752.28;5012957;28;20133;-80
2023/03/03 07:56:40;;;;;;;;;;;;;;;4.69;63.45;100755.69;5012964;28;20054;-81
2023/03/03 07:59:26;;;;;;;46.50;18.75;;;;;;;4.71;63.43;100759.09;5013290;28;20427;-80
2023/03/03 08:01:57;;;;;;;46.78;19.95;;;;;;;4.74;63.46;100751.25;5013396;28;20050;-80
2023/03/03 08:04:49;;;;;;;49.30;19.92;;;;;;;4.74;63.45;100755.63;5013241;28;20561;-80
2023/03/03 08:07:17;;;;;;;48.00;19.95;;;;;;;4.81;63.41;100762.44;5012103;28;20050;-80
2023/03/03 08:09:55;;;;;;;49.28;19.77;;;;;;;4.80;63.74;100753.75;5013229;28;20061;-81
2023/03/03 08:12:29;;;;;;;42.88;20.38;;;;;;;4.82;63.58;100751.97;5012907;28;20054;-80
2023/03/03 08:15:19;;;;;;;47.03;19.27;;;;;;;4.86;63.83;100751.94;5011248;28;20189;-79
2023/03/03 08:17:47;;;;;;;44.53;18.13;;;;;;;4.90;63.96;100754.44;5012206;28;20061;-80
2023/03/03 08:20:35;;;;;;;51.78;18.83;;;;;;;4.93;64.00;100757.00;5012304;28;20504;-81
2023/03/03 08:23:01;;;;;;;43.47;18.95;;;;;;;5.00;63.94;100757.75;5012583;28;20050;-80
2023/03/03 08:25:28;;;;;;;43.97;19.92;;;;;;;5.04;63.83;100762.03;5009169;28;20046;-81
2023/03/03 08:27:54;;;;;;;44.25;19.77;;;;;;;5.07;63.92;100761.13;5007963;28;20116;-81
2023/03/03 08:30:21;;;;;;;45.42;19.73;;;;;;;5.11;63.87;100764.53;5012414;28;20172;-80
2023/03/03 08:32:47;;;;;;;46.55;19.33;;;;;;;5.16;64.13;100767.94;5012572;28;20049;-81
2023/03/03 08:35:14;;;;;;;41.25;18.40;;;;;;;5.23;63.74;100756.47;5012218;28;20046;-80
2023/03/03 08:37:40;;;;;;;45.65;18.80;;;;;;;5.27;64.09;100765.97;5012373;28;20058;-81
2023/03/03 08:40:07;;;;;;;40.20;17.55;;;;;;;5.33;63.79;100762.38;5006547;28;20084;-80
2023/03/03 08:42:33;;;;;;;42.25;17.98;;;;;;;5.35;63.65;100756.25;5003018;28;20081;-81
2023/03/03 08:45:00;;;;;;;40.72;17.90;;;;;;;5.37;63.59;100751.00;5002019;28;20054;-81
2023/03/03 08:47:26;;;;;;;42.72;18.10;;;;;;;5.40;63.45;100753.56;4998826;28;20058;-80
2023/03/03 08:49:53;;;;;;;38.08;17.15;;;;;;;5.44;63.36;100751.75;4994707;28;20057;-80
2023/03/03 08:52:19;;;;;;;35.67;17.15;;;;;;;5.48;63.39;100756.00;4992434;28;20520;-80
2023/03/03 08:54:46;;;;;;;37.13;16.65;;;;;;;5.50;63.03;100759.47;5017175;22;20125;-80
2023/03/03 08:57:12;;;;;;;37.90;15.82;;;;;;;5.51;63.27;100761.19;5009828;28;20058;-80
2023/03/03 08:59:39;;;;;;;31.92;15.93;;;;;;;5.54;63.31;100757.66;5012364;28;20066;-80
2023/03/03 09:02:06;;;;;;;36.97;16.35;;;;;;;5.56;63.63;100759.34;5012045;28;20057;-80
2023/03/03 09:04:33;;;;;;;35.65;15.95;;;;;;;5.60;63.44;100765.34;5012351;28;20148;-80
2023/03/03 09:07:00;;;;;;;28.98;14.27;;;;;;;5.62;63.32;100768.81;5010379;28;20103;-80
2023/03/03 09:09:26;;;;;;;34.00;15.30;;;;;;;5.65;62.90;100765.28;5011069;28;20054;-80
2023/03/03 09:11:57;;;;;;;33.75;16.17;;;;;;;5.65;62.92;100763.53;5012129;28;20060;-80
2023/03/03 09:14:27;;;;;;;30.77;15.30;;;;;;;5.68;62.88;100773.06;5011972;28;20050;-80
2023/03/03 09:16:56;;;;;;;33.03;16.50;;;;;;;5.68;63.21;100776.50;5011564;28;20057;-80
2023/03/03 09:19:28;;;;;;;30.27;15.38;;;;;;;5.69;62.83;100767.78;5012114;28;20081;-79
2023/03/03 09:21:57;;;;;;;31.40;14.98;;;;;;;5.71;62.93;100772.97;5012191;28;20050;-80
2023/03/03 09:24:34;;;;;;;31.77;15.90;;;;;;;5.70;62.78;100769.53;5011991;28;20145;-79
2023/03/03 09:27:01;;;;;;;34.35;15.15;;;;;;;5.72;62.99;100767.72;5010147;28;20049;-80
2023/03/03 09:29:29;;;;;;;32.47;15.88;;;;;;;5.73;63.13;100786.88;5012013;28;20072;-80
2023/03/03 09:31:58;;;;;;;36.40;16.58;;;;;;;5.75;62.97;100777.25;5011863;28;20085;-80
2023/03/03 09:34:37;;;;;;;36.38;17.23;;;;;;;5.73;62.61;100784.25;5011653;28;20099;-78
2023/03/03 09:37:33;;;;;;;34.40;16.85;;;;;;;5.75;63.11;100792.91;5010935;28;20053;-80
2023/03/03 09:39:59;;;;;;;30.02;15.07;;;;;;;5.82;62.93;100791.03;5011744;28;20052;-80
2023/03/03 09:42:44;;;;;;;33.55;15.88;;;;;;;5.81;62.71;100794.56;5010430;28;20045;-80
2023/03/03 09:45:43;;;;;;;30.70;15.52;;;;;;;5.81;62.63;100803.25;5010069;28;20046;-80
2023/03/03 09:48:39;;;;;;;28.90;15.20;;;;;;;5.83;62.84;100800.63;5011007;28;20065;-80
2023/03/03 09:51:32;;;;;;;30.88;15.30;;;;;;;5.84;62.96;100800.56;5011440;28;20128;-80
2023/03/03 09:54:19;;;;;;;33.80;15.73;;;;;;;5.89;62.89;100802.22;5009107;28;20046;-80
2023/03/03 09:56:56;;;;;;;35.30;15.95;;;;;;;5.93;63.13;100793.44;5010537;28;20478;-80
2023/03/03 09:59:31;;;;;;;29.45;15.73;;;;;;;5.94;62.99;100803.84;5010175;28;20060;-79
2023/03/03 10:02:10;;;;;;;31.88;16.05;;;;;;;5.98;62.86;100802.91;5011371;28;20064;-80
2023/03/03 10:04:41;;;;;;;29.80;15.02;;;;;;;6.00;62.94;100805.50;5011281;28;20054;-80
2023/03/03 10:07:36;;;;;;;28.30;15.77;;;;;;;6.02;63.11;100814.16;5010419;28;20088;-80
2023/03/03 10:10:40;;;;;;;26.70;14.93;;;;;;;6.05;62.85;100806.28;5011048;28;20513;-80
2023/03/03 10:13:21;;;;;;;24.88;12.48;;;;;;;6.10;62.61;100812.25;5011456;28;20093;-80
2023/03/03 10:16:09;;;;;;;21.83;12.23;;;;;;;6.14;62.47;100815.69;5009500;28;20046;-80
2023/03/03 10:18:48;;;;;;;19.65;10.93;;;;;;;6.15;62.33;100809.56;5010646;28;20132;-80
2023/03/03 10:21:32;;;;;;;21.33;11.73;;;;;;;6.16;62.61;100806.06;5011328;28;20100;-80
2023/03/03 10:24:24;;;;;;;19.27;11.27;;;;;;;6.16;62.49;100803.44;5011135;28;20100;-79
2023/03/03 10:27:35;;;;;;;22.45;11.68;;;;;;;6.18;62.42;100803.41;5010284;28;20053;-80
2023/03/03 10:30:41;;;;;;;22.13;13.07;;;;;;;6.21;62.37;100804.19;5011110;28;20060;-79
2023/03/03 10:33:35;;;;;;;20.10;11.80;;;;;;;6.27;62.42;100803.19;5010878;28;20062;-80
2023/03/03 10:36:21;;;;;;;22.70;12.68;;;;;;;6.27;62.50;100811.03;5010420;28;20376;-80
2023/03/03 10:39:01;;;;;;;22.90;12.07;;;;;;;6.33;62.96;100808.31;5010825;28;20119;-79
2023/03/03 10:41:46;;;;;;;22.67;13.07;;;;;;;6.34;62.57;100804.78;5009693;28;20137;-77
2023/03/03 10:44:24;;;;;;;21.73;12.60;;;;;;;6.37;62.44;100804.72;5010950;28;20056;-80
2023/03/03 10:47:17;;;;;;;24.85;13.68;;;;;;;6.41;62.75;100812.50;5009412;28;20050;-80
2023/03/03 10:49:53;;;;;;;25.05;14.05;;;;;;;6.43;62.41;100808.94;5009490;28;20136;-80
2023/03/03 10:52:23;;;;;;;24.05;13.43;;;;;;;6.49;62.83;100806.19;5010734;28;20147;-78
2023/03/03 10:55:22;;;;;;;27.63;13.50;;;;;;;6.50;62.38;100807.91;5010273;28;20576;-79
2023/03/03 10:58:26;;;;;;;25.75;14.00;;;;;;;6.56;62.60;100809.53;5007332;28;20089;-79
2023/03/03 11:01:21;;;;;;;22.30;12.80;;;;;;;6.61;62.31;100804.19;5010992;28;20057;-80
2023/03/03 11:04:00;;;;;;;18.67;11.65;;;;;;;6.68;62.46;100807.50;5010840;28;20050;-79
2023/03/03 11:07:11;;;;;;;23.65;12.82;;;;;;;6.69;61.99;100810.09;5008969;28;20096;-80
2023/03/03 11:09:43;;;;;;;19.80;11.65;;;;;;;6.75;62.25;100801.25;4980510;28;20050;-79
2023/03/03 11:12:52;;;;;;;18.60;10.77;;;;;;;6.77;61.88;100807.31;4991215;28;20074;-79
2023/03/03 11:15:45;;;;;;;17.08;10.50;;;;;;;6.86;62.23;100803.59;4975031;28;20084;-79
2023/03/03 11:18:23;;;;;;;15.67;9.47;;;;;;;6.87;61.67;100800.94;4991550;28;20513;-80
2023/03/03 11:21:05;;;;;;;15.77;10.13;;;;;;;6.92;62.24;100800.84;5013181;28;20847;-80
2023/03/03 11:24:00;;;;;;;16.48;10.43;;;;;;;6.97;62.11;100803.31;5014210;28;20096;-80
2023/03/03 11:27:07;;;;;;;16.27;9.98;;;;;;;7.04;61.78;100797.06;5013839;28;20108;-79
2023/03/03 11:30:11;;;;;;;17.73;10.05;;;;;;;7.14;61.58;100795.06;5011228;28;20065;-80
2023/03/03 11:32:38;;;;;;;17.85;11.40;;;;;;;7.25;62.52;100789.53;5014143;28;20134;-79
2023/03/03 11:35:27;;;;;;;20.10;11.40;;;;;;;7.26;61.90;100791.25;5013647;28;20085;-80
2023/03/03 11:38:20;;;;;;;20.50;11.80;;;;;;;7.33;61.77;100797.19;5012292;28;20421;-80
2023/03/03 11:40:54;;;;;;;19.48;11.05;;;;;;;7.39;61.97;100795.25;5006508;28;20081;-80
2023/03/03 11:43:44;;;;;;;17.45;10.25;;;;;;;7.41;61.62;100795.22;5013932;28;20080;-80